Matthew James — WDD4491 — position and weather

sailwx.info

Track history (hours):
 
Tides and Currents Weather Stations Pressure Air Temp Water Temp Dewpoint Dewpoint Depression Visibility Wind Speed Wind Dir Waves Ship Positions

Matthew James

Owner: LeBeouf Bros. Towing, LLC, Houma, LA. More information available from US FCC via Universal Licensing System and Coast Guard Vessel Documentation Center.

Last reported at 2017-Oct-13 12:19 UTC. Time now 2017-Nov-20 13:54 UTC.
Position N 29°49' W 092°03'.
Warning: this ship's position is 38 days out of date.

Length 24 m; draft 3 m.

Type: Tug. MMSI: 367145380.

Date/timePositionNaut miles runAvg speedWind from/ knotsBaromVisibWave heightAir tempDewpointWater temp
2017-Oct-13 12:19N 29°49' W 092°03'2 6.2
2017-Oct-13 12:00N 29°48' W 092°05'3 6.2
2017-Oct-13 11:30N 29°47' W 092°09'3 5.5
2017-Oct-13 11:00N 29°47' W 092°12'1 2.5
2017-Oct-13 10:31N 29°47' W 092°13'2 4.3
2017-Oct-13 10:01N 29°48' W 092°15'2 4.7
2017-Oct-13 09:30N 29°50' W 092°18'2 4.5
2017-Oct-13 09:01N 29°51' W 092°20'3 4.2
2017-Oct-13 08:22N 29°52' W 092°22'37 3.8
2017-Oct-12 22:37N 29°56' W 093°05'2 4.1
2017-Oct-12 22:15N 29°56' W 093°07'2 4.4
2017-Oct-12 21:54N 29°56' W 093°08'1 3.8
2017-Oct-12 21:31N 29°56' W 093°10'2 4.8
2017-Oct-12 21:00N 29°58' W 093°12'2 4.8
2017-Oct-12 20:31N 30°00' W 093°14'2 3.9
2017-Oct-12 20:01N 30°02' W 093°15'2 4.2
2017-Oct-12 19:31N 30°04' W 093°16'2 4.6
2017-Oct-12 19:00N 30°05' W 093°18'1 1.1
2017-Oct-12 18:31N 30°06' W 093°18'0 0.3
2017-Oct-12 18:01N 30°06' W 093°18'0 0.0
2017-Oct-12 17:31N 30°06' W 093°18'0 0.0
2017-Oct-12 17:01N 30°06' W 093°18'2 3.4
2017-Oct-12 16:31N 30°05' W 093°20'2 4.1
2017-Oct-12 16:00N 30°04' W 093°22'2 4.8
2017-Oct-12 15:30N 30°04' W 093°24'3 5.4
2017-Oct-12 15:00N 30°04' W 093°27'3 5.4
2017-Oct-12 14:31N 30°04' W 093°31'3 5.3
2017-Oct-12 14:00N 30°04' W 093°34'3 5.4
2017-Oct-12 13:30N 30°04' W 093°37'2 4.6
2017-Oct-12 13:00N 30°04' W 093°39'2 4.5
2017-Oct-12 12:28N 30°03' W 093°42'5 6.0
2017-Oct-12 11:36N 29°60' W 093°47'1 6.8
2017-Oct-12 11:28N 29°59' W 093°47'11 7.0
2017-Oct-12 09:51N 29°51' W 093°57'4 5.1
2017-Oct-12 09:00N 29°48' W 094°00'49 4.1
2017-Oct-11 21:01N 29°32' W 094°54'1 7.8
2017-Oct-11 20:55N 29°33' W 094°54'3 7.0
2017-Oct-11 20:31N 29°35' W 094°56'3 6.9
2017-Oct-11 20:01N 29°38' W 094°58'4 7.5
2017-Oct-11 19:30N 29°41' W 094°59'3 4.3
2017-Oct-11 18:51N 29°42' W 095°02'0 1.2
2017-Oct-11 18:31N 29°43' W 095°03'0 0.1
2017-Oct-11 17:54N 29°42' W 095°03'0 0.0
2017-Oct-11 17:27N 29°42' W 095°03'0 0.0
2017-Oct-11 17:01N 29°42' W 095°03'1 0.1
2017-Oct-10 22:40N 29°44' W 095°03'0 0.0
2017-Oct-10 22:20N 29°44' W 095°03'0 0.0
2017-Oct-10 22:00N 29°44' W 095°03'0 0.0
2017-Oct-10 20:59N 29°44' W 095°03'0 0.0
2017-Oct-10 20:23N 29°44' W 095°03'0 0.0
2017-Oct-10 19:59N 29°44' W 095°03'0 0.0
2017-Oct-10 18:58N 29°44' W 095°03'0 0.0
2017-Oct-10 18:29N 29°44' W 095°03'0 0.0
2017-Oct-10 17:59N 29°44' W 095°03'0 0.0
2017-Oct-10 17:29N 29°44' W 095°03'0 0.0
2017-Oct-10 16:40N 29°44' W 095°03'0 0.0
2017-Oct-10 16:24N 29°44' W 095°03'0 0.0
2017-Oct-10 15:59N 29°44' W 095°03'0 0.0
2017-Oct-10 15:29N 29°44' W 095°03'0 0.0
2017-Oct-10 14:59N 29°44' W 095°03'0 0.0
2017-Oct-10 13:53N 29°44' W 095°03'0 0.0
2017-Oct-10 13:25N 29°44' W 095°03'0 0.0
2017-Oct-10 12:56N 29°44' W 095°03'0 0.0
2017-Oct-10 05:09N 29°44' W 095°03'0 0.2
2017-Oct-10 05:00N 29°44' W 095°03'0 0.0
2017-Oct-10 04:30N 29°44' W 095°03'2 3.2
2017-Oct-10 03:51N 29°42' W 095°02'1 2.3
2017-Oct-10 03:25N 29°42' W 095°03'0 0.1
2017-Oct-10 02:25N 29°42' W 095°03'0 0.0
2017-Oct-10 01:46N 29°42' W 095°03'0 0.0
2017-Oct-09 22:14N 29°42' W 095°03'1 4.3
2017-Oct-09 21:57N 29°42' W 095°01'2 4.1
2017-Oct-09 21:29N 29°44' W 095°03'2 1.1
2017-Oct-09 19:41N 29°42' W 095°01'1 5.4
2017-Oct-09 19:29N 29°42' W 095°03'0 0.1
2017-Oct-09 17:12N 29°42' W 095°03'0 0.0
2017-Oct-09 16:52N 29°42' W 095°03'0 0.0
2017-Oct-09 16:30N 29°42' W 095°03'0 0.0
2017-Oct-09 16:00N 29°42' W 095°03'0 0.0
2017-Oct-09 15:30N 29°42' W 095°03'0 0.0
2017-Oct-09 15:00N 29°42' W 095°03'0 0.0
2017-Oct-09 14:30N 29°42' W 095°03'0 0.0
2017-Oct-09 13:59N 29°42' W 095°03'0 0.0
2017-Oct-09 13:25N 29°42' W 095°03'0 0.0
2017-Oct-09 12:59N 29°42' W 095°03'0 0.0
2017-Oct-09 12:30N 29°42' W 095°03'0 0.0
2017-Oct-09 12:00N 29°42' W 095°03'0 0.0
2017-Oct-09 11:27N 29°42' W 095°03'0 0.0
2017-Oct-09 10:59N 29°42' W 095°03'0 0.0
2017-Oct-09 10:21N 29°42' W 095°03'0 0.0
2017-Oct-09 09:51N 29°42' W 095°03'0 0.0
2017-Oct-09 09:26N 29°42' W 095°03'0 0.0
2017-Oct-09 09:00N 29°42' W 095°03'0 0.0
2017-Oct-09 08:25N 29°42' W 095°03'0 0.0
2017-Oct-09 08:00N 29°42' W 095°03'0 0.0
2017-Oct-09 07:28N 29°42' W 095°03'0 0.0
2017-Oct-09 06:59N 29°42' W 095°03'0 0.0
2017-Oct-09 06:27N 29°42' W 095°03'0 0.0
2017-Oct-09 05:58N 29°42' W 095°03'0 0.0
2017-Oct-09 05:27N 29°42' W 095°03'0 0.0
2017-Oct-09 04:55N 29°42' W 095°03'0 0.0
2017-Oct-09 04:25N 29°42' W 095°03'2 3.6
2017-Oct-09 03:58N 29°44' W 095°01'1 2.6
2017-Oct-09 03:26N 29°44' W 095°03'0 0.6
2017-Oct-09 02:55N 29°44' W 095°03'2 4.1
2017-Oct-09 02:27N 29°42' W 095°02'1 1.5
2017-Oct-09 01:48N 29°42' W 095°03'0 0.0
2017-Oct-09 01:23N 29°42' W 095°03'0 0.0
2017-Oct-09 00:58N 29°42' W 095°03'0 0.0
2017-Oct-09 00:24N 29°42' W 095°03'0 0.0
2017-Oct-08 23:56N 29°42' W 095°03'0 0.0
2017-Oct-08 23:24N 29°42' W 095°03'0 0.0
2017-Oct-08 22:59N 29°42' W 095°03'0 0.0
2017-Oct-08 22:14N 29°42' W 095°03'0 0.0
2017-Oct-08 19:23N 29°42' W 095°03'0 0.0
2017-Oct-08 18:54N 29°42' W 095°03'0 0.0
2017-Oct-08 18:29N 29°42' W 095°03'0 0.0
2017-Oct-08 17:45N 29°42' W 095°03'0 0.0
2017-Oct-08 17:06N 29°42' W 095°03'0 0.0
2017-Oct-08 16:52N 29°42' W 095°03'0 0.0
2017-Oct-08 16:29N 29°42' W 095°03'0 0.0
2017-Oct-08 15:57N 29°42' W 095°03'0 0.0
2017-Oct-08 15:28N 29°42' W 095°03'0 0.0
2017-Oct-08 14:58N 29°42' W 095°03'0 0.0
2017-Oct-08 14:11N 29°42' W 095°03'0 0.0
2017-Oct-08 13:44N 29°42' W 095°03'0 0.0
2017-Oct-08 13:21N 29°42' W 095°03'0 0.0
2017-Oct-08 13:00N 29°42' W 095°03'0 0.0
2017-Oct-08 12:25N 29°42' W 095°03'0 0.0
2017-Oct-08 11:58N 29°42' W 095°03'0 0.0
2017-Oct-08 11:30N 29°42' W 095°03'0 0.0
2017-Oct-08 10:59N 29°42' W 095°03'0 0.0
2017-Oct-08 10:28N 29°42' W 095°03'0 0.0
2017-Oct-08 09:59N 29°42' W 095°03'0 0.0
2017-Oct-08 09:29N 29°42' W 095°03'0 0.0
2017-Oct-08 08:57N 29°42' W 095°03'0 0.0
2017-Oct-08 08:28N 29°42' W 095°03'0 0.0
2017-Oct-08 07:59N 29°42' W 095°03'0 0.0
2017-Oct-08 07:22N 29°42' W 095°03'0 0.0
2017-Oct-08 06:59N 29°42' W 095°03'0 0.0
2017-Oct-08 06:31N 29°42' W 095°03'0 0.0
2017-Oct-08 05:54N 29°42' W 095°03'0 0.0
2017-Oct-08 05:12N 29°42' W 095°03'0 0.0
2017-Oct-08 04:58N 29°42' W 095°03'0 0.0
2017-Oct-08 04:31N 29°42' W 095°03'0 0.0
2017-Oct-08 03:55N 29°42' W 095°03'0 0.0
2017-Oct-08 03:13N 29°42' W 095°03'0 0.0
2017-Oct-08 02:58N 29°42' W 095°03'0 0.0
2017-Oct-08 02:29N 29°42' W 095°03'1 1.3
2017-Oct-08 02:00N 29°42' W 095°02'2 2.9
2017-Oct-08 01:27N 29°44' W 095°01'0 0.5
2017-Oct-08 01:01N 29°44' W 095°01'0 0.0
2017-Oct-08 00:30N 29°44' W 095°01'0 0.0
2017-Oct-08 00:00N 29°44' W 095°01'0 0.0
2017-Oct-07 23:30N 29°44' W 095°01'0 0.0
2017-Oct-07 23:01N 29°44' W 095°01'0 0.0
2017-Oct-07 22:31N 29°44' W 095°01'0 0.0
2017-Oct-07 21:57N 29°44' W 095°01'0 0.0
2017-Oct-06 18:57N 29°44' W 095°01'0 0.1
2017-Oct-06 18:28N 29°44' W 095°01'0 0.0
2017-Oct-06 17:58N 29°44' W 095°01'0 0.0
2017-Oct-06 17:30N 29°44' W 095°01'0 0.0
2017-Oct-06 17:00N 29°44' W 095°01'0 0.0
2017-Oct-06 16:30N 29°44' W 095°01'0 0.0
2017-Oct-06 15:54N 29°44' W 095°01'0 0.0
2017-Oct-06 15:29N 29°44' W 095°01'0 0.0
2017-Oct-06 14:59N 29°44' W 095°01'0 0.0
2017-Oct-06 14:30N 29°44' W 095°01'0 0.0
2017-Oct-06 13:54N 29°44' W 095°01'0 0.0
2017-Oct-06 13:31N 29°44' W 095°01'0 0.0
2017-Oct-06 12:59N 29°44' W 095°01'0 0.0
2017-Oct-06 12:28N 29°44' W 095°01'0 0.0
2017-Oct-06 12:01N 29°44' W 095°01'0 0.0
2017-Oct-06 11:30N 29°44' W 095°01'0 0.0
2017-Oct-06 10:59N 29°44' W 095°01'0 0.0
2017-Oct-06 10:31N 29°44' W 095°01'0 0.0
2017-Oct-06 10:01N 29°44' W 095°01'0 0.1
2017-Oct-06 09:29N 29°44' W 095°01'0 0.0
2017-Oct-06 07:34N 29°44' W 095°01'0 0.1
2017-Oct-06 07:27N 29°44' W 095°01'0 0.0
2017-Oct-06 06:53N 29°44' W 095°01'0 0.0
2017-Oct-06 06:23N 29°44' W 095°01'0 0.0
2017-Oct-06 05:54N 29°44' W 095°01'0 0.0
2017-Oct-06 05:25N 29°44' W 095°01'0 0.0
2017-Oct-06 04:43N 29°44' W 095°01'0 0.0
2017-Oct-06 04:29N 29°44' W 095°01'0 0.0
2017-Oct-06 03:18N 29°44' W 095°01'0 0.0
2017-Oct-06 02:58N 29°44' W 095°01'0 0.0
2017-Oct-05 23:22N 29°44' W 095°01'0 0.3
2017-Oct-05 23:00N 29°44' W 095°01'2 2.6
2017-Oct-05 22:23N 29°42' W 095°02'1 2.7
2017-Oct-05 22:00N 29°43' W 095°03'0 0.2
2017-Oct-05 21:30N 29°42' W 095°03'0 0.1
2017-Oct-05 21:00N 29°42' W 095°03'0 0.0
2017-Oct-05 20:21N 29°42' W 095°03'0 0.1
2017-Oct-05 20:00N 29°42' W 095°03'1 2.2
2017-Oct-05 19:20N 29°44' W 095°03'1 3.2
2017-Oct-05 18:56N 29°44' W 095°02'2 4.0
2017-Oct-05 18:29N 29°42' W 095°03'0 0.2
2017-Oct-05 17:52N 29°42' W 095°03'0 0.0
2017-Oct-05 17:30N 29°42' W 095°03'0 0.0
2017-Oct-05 16:56N 29°42' W 095°03'0 0.0
2017-Oct-05 14:20N 29°42' W 095°03'0 0.0
2017-Oct-05 13:58N 29°42' W 095°03'0 0.0
2017-Oct-05 13:13N 29°42' W 095°03'0 0.0
2017-Oct-05 12:51N 29°42' W 095°03'0 0.0
2017-Oct-05 11:25N 29°42' W 095°03'0 0.0
2017-Oct-05 10:57N 29°42' W 095°03'0 0.0
2017-Oct-05 10:30N 29°42' W 095°03'0 0.0
2017-Oct-05 09:47N 29°42' W 095°03'0 0.0
2017-Oct-05 09:23N 29°42' W 095°03'0 0.0
2017-Oct-05 08:34N 29°42' W 095°03'0 0.0
2017-Oct-05 08:07N 29°42' W 095°03'0 0.0
2017-Oct-05 07:55N 29°42' W 095°03'0 0.0
2017-Oct-05 07:29N 29°42' W 095°03'0 0.0
2017-Oct-05 07:00N 29°42' W 095°03'0 0.0
2017-Oct-05 06:26N 29°42' W 095°03'0 0.0
2017-Oct-05 05:55N 29°42' W 095°03'0 0.0
2017-Oct-05 05:24N 29°42' W 095°03'0 0.0
2017-Oct-05 04:55N 29°42' W 095°03'0 0.0
2017-Oct-05 02:55N 29°42' W 095°03'0 0.0
2017-Oct-05 02:26N 29°42' W 095°03'0 0.0
2017-Oct-05 01:40N 29°42' W 095°03'0 0.0
2017-Oct-05 01:26N 29°42' W 095°03'0 0.0
2017-Oct-04 22:54N 29°42' W 095°03'0 0.0
2017-Oct-04 22:14N 29°42' W 095°03'0 0.0
2017-Oct-04 21:51N 29°42' W 095°03'0 0.0
2017-Oct-04 21:31N 29°42' W 095°03'0 0.0
2017-Oct-04 20:02N 29°42' W 095°03'0 0.0
2017-Oct-04 18:50N 29°42' W 095°03'0 0.0
2017-Oct-04 18:02N 29°42' W 095°03'0 0.0
2017-Oct-04 15:37N 29°42' W 095°03'0 0.0
2017-Oct-04 15:10N 29°42' W 095°03'0 0.0
2017-Oct-04 14:52N 29°42' W 095°03'0 0.0
2017-Oct-04 13:53N 29°42' W 095°03'0 0.0
2017-Oct-04 13:19N 29°42' W 095°03'0 0.0
2017-Oct-04 12:38N 29°42' W 095°03'0 0.0
2017-Oct-04 12:19N 29°42' W 095°03'0 0.0
2017-Oct-04 11:59N 29°42' W 095°03'0 0.0
2017-Oct-04 11:30N 29°42' W 095°03'0 0.0
2017-Oct-04 10:57N 29°42' W 095°03'0 0.0
2017-Oct-04 10:26N 29°42' W 095°03'0 0.0
2017-Oct-04 09:54N 29°42' W 095°03'0 0.0
2017-Oct-04 09:29N 29°42' W 095°03'0 0.0
2017-Oct-04 08:59N 29°42' W 095°03'0 0.0
2017-Oct-04 08:29N 29°42' W 095°03'0 0.0
2017-Oct-04 08:00N 29°42' W 095°03'0 0.0
2017-Oct-04 07:27N 29°42' W 095°03'0 0.0
2017-Oct-04 07:00N 29°42' W 095°03'0 0.0
2017-Oct-04 05:33N 29°42' W 095°03'0 0.0
2017-Oct-04 05:07N 29°42' W 095°03'0 0.0
2017-Oct-04 04:59N 29°42' W 095°03'0 0.0
2017-Oct-04 04:30N 29°42' W 095°03'0 0.0
2017-Oct-04 03:59N 29°42' W 095°03'0 0.0
2017-Oct-04 03:30N 29°42' W 095°03'0 0.0
2017-Oct-04 02:58N 29°42' W 095°03'0 0.0
2017-Oct-04 02:27N 29°42' W 095°03'0 0.0
2017-Oct-04 01:56N 29°42' W 095°03'0 0.0
2017-Oct-04 01:29N 29°42' W 095°03'0 0.0
2017-Oct-03 23:55N 29°42' W 095°03'0 0.0
2017-Oct-03 23:29N 29°42' W 095°03'0 0.0
2017-Oct-03 22:53N 29°42' W 095°03'0 0.0
2017-Oct-03 22:28N 29°42' W 095°03'0 0.0
2017-Oct-03 21:59N 29°42' W 095°03'0 0.0
2017-Oct-03 21:19N 29°42' W 095°03'0 0.0
2017-Oct-03 21:00N 29°42' W 095°03'0 0.1
2017-Oct-03 20:30N 29°42' W 095°03'0 0.0
2017-Oct-03 20:01N 29°42' W 095°03'0 0.0
2017-Oct-03 18:29N 29°42' W 095°03'0 0.0
2017-Oct-03 17:37N 29°42' W 095°03'0 0.0
2017-Oct-03 17:31N 29°42' W 095°03'0 0.0
2017-Oct-03 16:51N 29°42' W 095°03'0 0.0
2017-Oct-03 16:29N 29°42' W 095°03'0 0.0
2017-Oct-03 15:55N 29°42' W 095°03'0 0.0
2017-Oct-03 15:26N 29°42' W 095°03'0 0.0
2017-Oct-03 14:56N 29°42' W 095°03'0 0.0
2017-Oct-03 13:57N 29°42' W 095°03'0 0.0
2017-Oct-03 13:27N 29°42' W 095°03'0 0.0
2017-Oct-03 12:57N 29°42' W 095°03'0 0.0
2017-Oct-03 12:29N 29°42' W 095°03'  
Track history (hours):
 
Tides and Currents Weather Stations Pressure Air Temp Water Temp Dewpoint Dewpoint Depression Visibility Wind Speed Wind Dir Waves Ship Positions

Matthew James

Owner: LeBeouf Bros. Towing, LLC, Houma, LA. More information available from US FCC via Universal Licensing System and Coast Guard Vessel Documentation Center.

Last reported at 2017-Oct-13 12:19 UTC. Time now 2017-Nov-20 13:54 UTC.
Position N 29°49' W 092°03'.
Warning: this ship's position is 38 days out of date.

Length 24 m; draft 3 m.

Type: Tug. MMSI: 367145380.

Date/timePositionNaut miles runAvg speedWind from/ knotsBaromVisibWave heightAir tempDewpointWater temp
2017-Oct-13 12:19N 29°49' W 092°03'2 6.2
2017-Oct-13 12:00N 29°48' W 092°05'3 6.2
2017-Oct-13 11:30N 29°47' W 092°09'3 5.5
2017-Oct-13 11:00N 29°47' W 092°12'1 2.5
2017-Oct-13 10:31N 29°47' W 092°13'2 4.3
2017-Oct-13 10:01N 29°48' W 092°15'2 4.7
2017-Oct-13 09:30N 29°50' W 092°18'2 4.5
2017-Oct-13 09:01N 29°51' W 092°20'3 4.2
2017-Oct-13 08:22N 29°52' W 092°22'37 3.8
2017-Oct-12 22:37N 29°56' W 093°05'2 4.1
2017-Oct-12 22:15N 29°56' W 093°07'2 4.4
2017-Oct-12 21:54N 29°56' W 093°08'1 3.8
2017-Oct-12 21:31N 29°56' W 093°10'2 4.8
2017-Oct-12 21:00N 29°58' W 093°12'2 4.8
2017-Oct-12 20:31N 30°00' W 093°14'2 3.9
2017-Oct-12 20:01N 30°02' W 093°15'2 4.2
2017-Oct-12 19:31N 30°04' W 093°16'2 4.6
2017-Oct-12 19:00N 30°05' W 093°18'1 1.1
2017-Oct-12 18:31N 30°06' W 093°18'0 0.3
2017-Oct-12 18:01N 30°06' W 093°18'0 0.0
2017-Oct-12 17:31N 30°06' W 093°18'0 0.0
2017-Oct-12 17:01N 30°06' W 093°18'2 3.4
2017-Oct-12 16:31N 30°05' W 093°20'2 4.1
2017-Oct-12 16:00N 30°04' W 093°22'2 4.8
2017-Oct-12 15:30N 30°04' W 093°24'3 5.4
2017-Oct-12 15:00N 30°04' W 093°27'3 5.4
2017-Oct-12 14:31N 30°04' W 093°31'3 5.3
2017-Oct-12 14:00N 30°04' W 093°34'3 5.4
2017-Oct-12 13:30N 30°04' W 093°37'2 4.6
2017-Oct-12 13:00N 30°04' W 093°39'2 4.5
2017-Oct-12 12:28N 30°03' W 093°42'5 6.0
2017-Oct-12 11:36N 29°60' W 093°47'1 6.8
2017-Oct-12 11:28N 29°59' W 093°47'11 7.0
2017-Oct-12 09:51N 29°51' W 093°57'4 5.1
2017-Oct-12 09:00N 29°48' W 094°00'49 4.1
2017-Oct-11 21:01N 29°32' W 094°54'1 7.8
2017-Oct-11 20:55N 29°33' W 094°54'3 7.0
2017-Oct-11 20:31N 29°35' W 094°56'3 6.9
2017-Oct-11 20:01N 29°38' W 094°58'4 7.5
2017-Oct-11 19:30N 29°41' W 094°59'3 4.3
2017-Oct-11 18:51N 29°42' W 095°02'0 1.2
2017-Oct-11 18:31N 29°43' W 095°03'0 0.1
2017-Oct-11 17:54N 29°42' W 095°03'0 0.0
2017-Oct-11 17:27N 29°42' W 095°03'0 0.0
2017-Oct-11 17:01N 29°42' W 095°03'1 0.1
2017-Oct-10 22:40N 29°44' W 095°03'0 0.0
2017-Oct-10 22:20N 29°44' W 095°03'0 0.0
2017-Oct-10 22:00N 29°44' W 095°03'0 0.0
2017-Oct-10 20:59N 29°44' W 095°03'0 0.0
2017-Oct-10 20:23N 29°44' W 095°03'0 0.0
2017-Oct-10 19:59N 29°44' W 095°03'0 0.0
2017-Oct-10 18:58N 29°44' W 095°03'0 0.0
2017-Oct-10 18:29N 29°44' W 095°03'0 0.0
2017-Oct-10 17:59N 29°44' W 095°03'0 0.0
2017-Oct-10 17:29N 29°44' W 095°03'0 0.0
2017-Oct-10 16:40N 29°44' W 095°03'0 0.0
2017-Oct-10 16:24N 29°44' W 095°03'0 0.0
2017-Oct-10 15:59N 29°44' W 095°03'0 0.0
2017-Oct-10 15:29N 29°44' W 095°03'0 0.0
2017-Oct-10 14:59N 29°44' W 095°03'0 0.0
2017-Oct-10 13:53N 29°44' W 095°03'0 0.0
2017-Oct-10 13:25N 29°44' W 095°03'0 0.0
2017-Oct-10 12:56N 29°44' W 095°03'0 0.0
2017-Oct-10 05:09N 29°44' W 095°03'0 0.2
2017-Oct-10 05:00N 29°44' W 095°03'0 0.0
2017-Oct-10 04:30N 29°44' W 095°03'2 3.2
2017-Oct-10 03:51N 29°42' W 095°02'1 2.3
2017-Oct-10 03:25N 29°42' W 095°03'0 0.1
2017-Oct-10 02:25N 29°42' W 095°03'0 0.0
2017-Oct-10 01:46N 29°42' W 095°03'0 0.0
2017-Oct-09 22:14N 29°42' W 095°03'1 4.3
2017-Oct-09 21:57N 29°42' W 095°01'2 4.1
2017-Oct-09 21:29N 29°44' W 095°03'2 1.1
2017-Oct-09 19:41N 29°42' W 095°01'1 5.4
2017-Oct-09 19:29N 29°42' W 095°03'0 0.1
2017-Oct-09 17:12N 29°42' W 095°03'0 0.0
2017-Oct-09 16:52N 29°42' W 095°03'0 0.0
2017-Oct-09 16:30N 29°42' W 095°03'0 0.0
2017-Oct-09 16:00N 29°42' W 095°03'0 0.0
2017-Oct-09 15:30N 29°42' W 095°03'0 0.0
2017-Oct-09 15:00N 29°42' W 095°03'0 0.0
2017-Oct-09 14:30N 29°42' W 095°03'0 0.0
2017-Oct-09 13:59N 29°42' W 095°03'0 0.0
2017-Oct-09 13:25N 29°42' W 095°03'0 0.0
2017-Oct-09 12:59N 29°42' W 095°03'0 0.0
2017-Oct-09 12:30N 29°42' W 095°03'0 0.0
2017-Oct-09 12:00N 29°42' W 095°03'0 0.0
2017-Oct-09 11:27N 29°42' W 095°03'0 0.0
2017-Oct-09 10:59N 29°42' W 095°03'0 0.0
2017-Oct-09 10:21N 29°42' W 095°03'0 0.0
2017-Oct-09 09:51N 29°42' W 095°03'0 0.0
2017-Oct-09 09:26N 29°42' W 095°03'0 0.0
2017-Oct-09 09:00N 29°42' W 095°03'0 0.0
2017-Oct-09 08:25N 29°42' W 095°03'0 0.0
2017-Oct-09 08:00N 29°42' W 095°03'0 0.0
2017-Oct-09 07:28N 29°42' W 095°03'0 0.0
2017-Oct-09 06:59N 29°42' W 095°03'0 0.0
2017-Oct-09 06:27N 29°42' W 095°03'0 0.0
2017-Oct-09 05:58N 29°42' W 095°03'0 0.0
2017-Oct-09 05:27N 29°42' W 095°03'0 0.0
2017-Oct-09 04:55N 29°42' W 095°03'0 0.0
2017-Oct-09 04:25N 29°42' W 095°03'2 3.6
2017-Oct-09 03:58N 29°44' W 095°01'1 2.6
2017-Oct-09 03:26N 29°44' W 095°03'0 0.6
2017-Oct-09 02:55N 29°44' W 095°03'2 4.1
2017-Oct-09 02:27N 29°42' W 095°02'1 1.5
2017-Oct-09 01:48N 29°42' W 095°03'0 0.0
2017-Oct-09 01:23N 29°42' W 095°03'0 0.0
2017-Oct-09 00:58N 29°42' W 095°03'0 0.0
2017-Oct-09 00:24N 29°42' W 095°03'0 0.0
2017-Oct-08 23:56N 29°42' W 095°03'0 0.0
2017-Oct-08 23:24N 29°42' W 095°03'0 0.0
2017-Oct-08 22:59N 29°42' W 095°03'0 0.0
2017-Oct-08 22:14N 29°42' W 095°03'0 0.0
2017-Oct-08 19:23N 29°42' W 095°03'0 0.0
2017-Oct-08 18:54N 29°42' W 095°03'0 0.0
2017-Oct-08 18:29N 29°42' W 095°03'0 0.0
2017-Oct-08 17:45N 29°42' W 095°03'0 0.0
2017-Oct-08 17:06N 29°42' W 095°03'0 0.0
2017-Oct-08 16:52N 29°42' W 095°03'0 0.0
2017-Oct-08 16:29N 29°42' W 095°03'0 0.0
2017-Oct-08 15:57N 29°42' W 095°03'0 0.0
2017-Oct-08 15:28N 29°42' W 095°03'0 0.0
2017-Oct-08 14:58N 29°42' W 095°03'0 0.0
2017-Oct-08 14:11N 29°42' W 095°03'0 0.0
2017-Oct-08 13:44N 29°42' W 095°03'0 0.0
2017-Oct-08 13:21N 29°42' W 095°03'0 0.0
2017-Oct-08 13:00N 29°42' W 095°03'0 0.0
2017-Oct-08 12:25N 29°42' W 095°03'0 0.0
2017-Oct-08 11:58N 29°42' W 095°03'0 0.0
2017-Oct-08 11:30N 29°42' W 095°03'0 0.0
2017-Oct-08 10:59N 29°42' W 095°03'0 0.0
2017-Oct-08 10:28N 29°42' W 095°03'0 0.0
2017-Oct-08 09:59N 29°42' W 095°03'0 0.0
2017-Oct-08 09:29N 29°42' W 095°03'0 0.0
2017-Oct-08 08:57N 29°42' W 095°03'0 0.0
2017-Oct-08 08:28N 29°42' W 095°03'0 0.0
2017-Oct-08 07:59N 29°42' W 095°03'0 0.0
2017-Oct-08 07:22N 29°42' W 095°03'0 0.0
2017-Oct-08 06:59N 29°42' W 095°03'0 0.0
2017-Oct-08 06:31N 29°42' W 095°03'0 0.0
2017-Oct-08 05:54N 29°42' W 095°03'0 0.0
2017-Oct-08 05:12N 29°42' W 095°03'0 0.0
2017-Oct-08 04:58N 29°42' W 095°03'0 0.0
2017-Oct-08 04:31N 29°42' W 095°03'0 0.0
2017-Oct-08 03:55N 29°42' W 095°03'0 0.0
2017-Oct-08 03:13N 29°42' W 095°03'0 0.0
2017-Oct-08 02:58N 29°42' W 095°03'0 0.0
2017-Oct-08 02:29N 29°42' W 095°03'1 1.3
2017-Oct-08 02:00N 29°42' W 095°02'2 2.9
2017-Oct-08 01:27N 29°44' W 095°01'0 0.5
2017-Oct-08 01:01N 29°44' W 095°01'0 0.0
2017-Oct-08 00:30N 29°44' W 095°01'0 0.0
2017-Oct-08 00:00N 29°44' W 095°01'0 0.0
2017-Oct-07 23:30N 29°44' W 095°01'0 0.0
2017-Oct-07 23:01N 29°44' W 095°01'0 0.0
2017-Oct-07 22:31N 29°44' W 095°01'0 0.0
2017-Oct-07 21:57N 29°44' W 095°01'0 0.0
2017-Oct-06 18:57N 29°44' W 095°01'0 0.1
2017-Oct-06 18:28N 29°44' W 095°01'0 0.0
2017-Oct-06 17:58N 29°44' W 095°01'0 0.0
2017-Oct-06 17:30N 29°44' W 095°01'0 0.0
2017-Oct-06 17:00N 29°44' W 095°01'0 0.0
2017-Oct-06 16:30N 29°44' W 095°01'0 0.0
2017-Oct-06 15:54N 29°44' W 095°01'0 0.0
2017-Oct-06 15:29N 29°44' W 095°01'0 0.0
2017-Oct-06 14:59N 29°44' W 095°01'0 0.0
2017-Oct-06 14:30N 29°44' W 095°01'0 0.0
2017-Oct-06 13:54N 29°44' W 095°01'0 0.0
2017-Oct-06 13:31N 29°44' W 095°01'0 0.0
2017-Oct-06 12:59N 29°44' W 095°01'0 0.0
2017-Oct-06 12:28N 29°44' W 095°01'0 0.0
2017-Oct-06 12:01N 29°44' W 095°01'0 0.0
2017-Oct-06 11:30N 29°44' W 095°01'0 0.0
2017-Oct-06 10:59N 29°44' W 095°01'0 0.0
2017-Oct-06 10:31N 29°44' W 095°01'0 0.0
2017-Oct-06 10:01N 29°44' W 095°01'0 0.1
2017-Oct-06 09:29N 29°44' W 095°01'0 0.0
2017-Oct-06 07:34N 29°44' W 095°01'0 0.1
2017-Oct-06 07:27N 29°44' W 095°01'0 0.0
2017-Oct-06 06:53N 29°44' W 095°01'0 0.0
2017-Oct-06 06:23N 29°44' W 095°01'0 0.0
2017-Oct-06 05:54N 29°44' W 095°01'0 0.0
2017-Oct-06 05:25N 29°44' W 095°01'0 0.0
2017-Oct-06 04:43N 29°44' W 095°01'0 0.0
2017-Oct-06 04:29N 29°44' W 095°01'0 0.0
2017-Oct-06 03:18N 29°44' W 095°01'0 0.0
2017-Oct-06 02:58N 29°44' W 095°01'0 0.0
2017-Oct-05 23:22N 29°44' W 095°01'0 0.3
2017-Oct-05 23:00N 29°44' W 095°01'2 2.6
2017-Oct-05 22:23N 29°42' W 095°02'1 2.7
2017-Oct-05 22:00N 29°43' W 095°03'0 0.2
2017-Oct-05 21:30N 29°42' W 095°03'0 0.1
2017-Oct-05 21:00N 29°42' W 095°03'0 0.0
2017-Oct-05 20:21N 29°42' W 095°03'0 0.1
2017-Oct-05 20:00N 29°42' W 095°03'1 2.2
2017-Oct-05 19:20N 29°44' W 095°03'1 3.2
2017-Oct-05 18:56N 29°44' W 095°02'2 4.0
2017-Oct-05 18:29N 29°42' W 095°03'0 0.2
2017-Oct-05 17:52N 29°42' W 095°03'0 0.0
2017-Oct-05 17:30N 29°42' W 095°03'0 0.0
2017-Oct-05 16:56N 29°42' W 095°03'0 0.0
2017-Oct-05 14:20N 29°42' W 095°03'0 0.0
2017-Oct-05 13:58N 29°42' W 095°03'0 0.0
2017-Oct-05 13:13N 29°42' W 095°03'0 0.0
2017-Oct-05 12:51N 29°42' W 095°03'0 0.0
2017-Oct-05 11:25N 29°42' W 095°03'0 0.0
2017-Oct-05 10:57N 29°42' W 095°03'0 0.0
2017-Oct-05 10:30N 29°42' W 095°03'0 0.0
2017-Oct-05 09:47N 29°42' W 095°03'0 0.0
2017-Oct-05 09:23N 29°42' W 095°03'0 0.0
2017-Oct-05 08:34N 29°42' W 095°03'0 0.0
2017-Oct-05 08:07N 29°42' W 095°03'0 0.0
2017-Oct-05 07:55N 29°42' W 095°03'0 0.0
2017-Oct-05 07:29N 29°42' W 095°03'0 0.0
2017-Oct-05 07:00N 29°42' W 095°03'0 0.0
2017-Oct-05 06:26N 29°42' W 095°03'0 0.0
2017-Oct-05 05:55N 29°42' W 095°03'0 0.0
2017-Oct-05 05:24N 29°42' W 095°03'0 0.0
2017-Oct-05 04:55N 29°42' W 095°03'0 0.0
2017-Oct-05 02:55N 29°42' W 095°03'0 0.0
2017-Oct-05 02:26N 29°42' W 095°03'0 0.0
2017-Oct-05 01:40N 29°42' W 095°03'0 0.0
2017-Oct-05 01:26N 29°42' W 095°03'0 0.0
2017-Oct-04 22:54N 29°42' W 095°03'0 0.0
2017-Oct-04 22:14N 29°42' W 095°03'0 0.0
2017-Oct-04 21:51N 29°42' W 095°03'0 0.0
2017-Oct-04 21:31N 29°42' W 095°03'0 0.0
2017-Oct-04 20:02N 29°42' W 095°03'0 0.0
2017-Oct-04 18:50N 29°42' W 095°03'0 0.0
2017-Oct-04 18:02N 29°42' W 095°03'0 0.0
2017-Oct-04 15:37N 29°42' W 095°03'0 0.0
2017-Oct-04 15:10N 29°42' W 095°03'0 0.0
2017-Oct-04 14:52N 29°42' W 095°03'0 0.0
2017-Oct-04 13:53N 29°42' W 095°03'0 0.0
2017-Oct-04 13:19N 29°42' W 095°03'0 0.0
2017-Oct-04 12:38N 29°42' W 095°03'0 0.0
2017-Oct-04 12:19N 29°42' W 095°03'0 0.0
2017-Oct-04 11:59N 29°42' W 095°03'0 0.0
2017-Oct-04 11:30N 29°42' W 095°03'0 0.0
2017-Oct-04 10:57N 29°42' W 095°03'0 0.0
2017-Oct-04 10:26N 29°42' W 095°03'0 0.0
2017-Oct-04 09:54N 29°42' W 095°03'0 0.0
2017-Oct-04 09:29N 29°42' W 095°03'0 0.0
2017-Oct-04 08:59N 29°42' W 095°03'0 0.0
2017-Oct-04 08:29N 29°42' W 095°03'0 0.0
2017-Oct-04 08:00N 29°42' W 095°03'0 0.0
2017-Oct-04 07:27N 29°42' W 095°03'0 0.0
2017-Oct-04 07:00N 29°42' W 095°03'0 0.0
2017-Oct-04 05:33N 29°42' W 095°03'0 0.0
2017-Oct-04 05:07N 29°42' W 095°03'0 0.0
2017-Oct-04 04:59N 29°42' W 095°03'0 0.0
2017-Oct-04 04:30N 29°42' W 095°03'0 0.0
2017-Oct-04 03:59N 29°42' W 095°03'0 0.0
2017-Oct-04 03:30N 29°42' W 095°03'0 0.0
2017-Oct-04 02:58N 29°42' W 095°03'0 0.0
2017-Oct-04 02:27N 29°42' W 095°03'0 0.0
2017-Oct-04 01:56N 29°42' W 095°03'0 0.0
2017-Oct-04 01:29N 29°42' W 095°03'0 0.0
2017-Oct-03 23:55N 29°42' W 095°03'0 0.0
2017-Oct-03 23:29N 29°42' W 095°03'0 0.0
2017-Oct-03 22:53N 29°42' W 095°03'0 0.0
2017-Oct-03 22:28N 29°42' W 095°03'0 0.0
2017-Oct-03 21:59N 29°42' W 095°03'0 0.0
2017-Oct-03 21:19N 29°42' W 095°03'0 0.0
2017-Oct-03 21:00N 29°42' W 095°03'0 0.1
2017-Oct-03 20:30N 29°42' W 095°03'0 0.0
2017-Oct-03 20:01N 29°42' W 095°03'0 0.0
2017-Oct-03 18:29N 29°42' W 095°03'0 0.0
2017-Oct-03 17:37N 29°42' W 095°03'0 0.0
2017-Oct-03 17:31N 29°42' W 095°03'0 0.0
2017-Oct-03 16:51N 29°42' W 095°03'0 0.0
2017-Oct-03 16:29N 29°42' W 095°03'0 0.0
2017-Oct-03 15:55N 29°42' W 095°03'0 0.0
2017-Oct-03 15:26N 29°42' W 095°03'0 0.0
2017-Oct-03 14:56N 29°42' W 095°03'0 0.0
2017-Oct-03 13:57N 29°42' W 095°03'0 0.0
2017-Oct-03 13:27N 29°42' W 095°03'0 0.0
2017-Oct-03 12:57N 29°42' W 095°03'0 0.0
2017-Oct-03 12:29N 29°42' W 095°03'  

Dump ship's entire track history